• Join FlightAware (Why Join?)
  • Login
  • US Flag 
07:32AM EDT


 

Airport Tracker/Info


-or-


 

Live Flight TrackerFlight Track Log ✈ QLK375 ✈ 09-Jul-2013 ✈ YSSY / SYD - NVVV / VLI

Flight Track Log - Related Links

Times and Time Zones

All times are in EDT time to prevent confusion due to time zone crossing. See the QLK375 flight status page for this flight to view local times or setup timezone preferences in your user account.

Time Position Orientation Groundspeed Altitude Reporting Facility
EDT Latitude Longitude Course Direction KTS MPH feet Rate Location/Type
07:43AM -33.9350 151.1700 306° West 3 3  Level FlightAware
07:44AM -33.9350 151.1690 270° West 3 3  Level FlightAware
07:46AM -33.9271 151.4429 88° East  Level FlightAware Approximate
07:47AM -33.9221 151.6025 88° East  Level FlightAware Approximate
07:48AM -33.9170 151.7621 88° East  Level FlightAware Approximate
07:49AM -33.9117 151.9216 88° East  Level FlightAware Approximate
07:49AM -33.9350 151.1700 88° East 7 8  Level FlightAware
07:49AM -33.9350 151.1710 90° East 11 13 60 Level FlightAware
07:50AM -33.9310 151.1690 337° Northwest 11 13 60 Level FlightAware
07:51AM -33.9300 151.1700 40° Northeast 5 6 60 Level FlightAware
07:53AM -33.9236 151.4440 88° East  Level FlightAware Approximate
07:53AM -33.9300 151.1720 88° East 4 5  Level FlightAware
07:54AM -33.9410 151.1750 167° South 135 155 240 Level FlightAware
07:54AM -33.9640 151.1810 168° South 162 186 400 1,320 Climbing FlightAware
07:54AM -33.9710 151.1820 173° South 164 189 900 1,800 Climbing FlightAware
07:55AM -33.9960 151.1790 186° South 196 226 1,600 1,500 Climbing FlightAware
07:55AM -34.0200 151.1760 186° South 209 241 2,300 2,220 Climbing FlightAware
07:56AM -34.0410 151.1740 185° South 223 257 3,300 2,880 Climbing FlightAware
07:56AM -34.0640 151.1860 157° South 215 247 4,500 2,400 Climbing FlightAware
07:56AM -34.0710 151.1990 123° Southeast 223 257 4,900 1,260 Climbing FlightAware
07:57AM -34.0740 151.2390 95° East 271 312 5,400 1,560 Climbing FlightAware
07:57AM -34.0750 151.2710 92° East 289 333 6,100 2,520 Climbing FlightAware
07:57AM -34.0580 151.3160 65° Northeast 295 339 7,500 2,700 Climbing FlightAware
07:58AM -34.0320 151.3550 51° Northeast 305 351 8,800 2,640 Climbing FlightAware
07:58AM -34.0130 151.3820 50° Northeast 310 357 9,700 3,000 Climbing FlightAware
07:59AM -33.9786 151.4341 50° Northeast 316 364 11,700 2,220 Climbing Aus ATC (RADAR)
07:59AM -33.9720 151.4430 50° Northeast 324 373 11,400 1,080 Descending FlightAware
08:00AM -33.9000 151.5523 50° Northeast 383 441 13,100 1,260 Climbing Aus ATC (RADAR)
08:01AM -33.8690 151.5990 51° Northeast 402 463 13,500 2,040 Climbing FlightAware
08:01AM -33.8594 151.6126 51° Northeast 400 460 14,300 3,000 Climbing Aus ATC (RADAR)
08:01AM -33.8111 151.6846 51° Northeast 416 479 15,700 1,200 Climbing Aus ATC (RADAR)
08:02AM -33.8090 151.6880 51° Northeast 417 480 15,200 900 Descending FlightAware
08:02AM -33.7610 151.7600 51° Northeast 428 493 16,400 1,740 Climbing FlightAware
08:03AM -33.7140 151.8290 51° Northeast 438 504 17,500 2,340 Climbing FlightAware
08:03AM -33.6533 151.9184 51° Northeast 446 513 19,500 1,860 Climbing Aus ATC (RADAR)
08:04AM -33.6550 151.9170 51° Northeast 447 514 18,900 2,880 Descending FlightAware
08:04AM -33.6095 151.9836 51° Northeast 440 506 21,200 3,120 Climbing Aus ATC (RADAR)
08:04AM -33.6040 151.9930 51° Northeast 432 497 21,000 960 Descending FlightAware
08:05AM -33.5440 152.0810 51° Northeast 448 516 22,100 1,020 Climbing FlightAware
08:06AM -33.4920 152.1590 51° Northeast 476 548 22,500 780 Climbing FlightAware
08:06AM -33.4390 152.2370 51° Northeast 493 567 23,100 1,440 Climbing FlightAware
08:07AM -33.3763 152.3282 51° Northeast 503 579 24,300 1,020 Climbing Aus ATC (RADAR)
08:07AM -33.3780 152.3260 51° Northeast 509 586 23,800 240 Descending FlightAware
08:08AM -33.3160 152.4160 51° Northeast 522 601 24,500 1,200 Climbing FlightAware
08:08AM -33.2530 152.5080 51° Northeast 526 605 25,500 1,380 Climbing FlightAware
08:09AM -33.1870 152.6050 51° Northeast 530 610 26,500 1,140 Climbing FlightAware
08:10AM -33.1190 152.7030 50° Northeast 540 621 27,200 900 Climbing FlightAware
08:10AM -33.0620 152.7870 50° Northeast 550 633 27,700 1,800 Climbing FlightAware
08:10AM -33.0506 152.8036 50° Northeast 547 629 28,400 1,260 Climbing Aus ATC (RADAR)
08:11AM -32.9930 152.8870 50° Northeast 545 627 28,600 1,200 Climbing FlightAware
08:11AM -32.9861 152.8975 50° Northeast 552 635 29,200 1,440 Climbing Aus ATC (RADAR)
08:11AM -32.9520 152.9460 50° Northeast 544 626 29,200 1,440 Level FlightAware
08:12AM -32.8807 153.0493 50° Northeast 547 629 30,800 1,440 Climbing Aus ATC (RADAR)
08:12AM -32.8720 153.0610 50° Northeast 541 623 30,400 1,500 Descending FlightAware
08:13AM -32.8167 153.1415 50° Northeast 544 626 31,800 1,500 Climbing Aus ATC (RADAR)
08:13AM -32.8150 153.1430 50° Northeast 536 617 31,300 1,500 Descending FlightAware
08:13AM -32.7608 153.2208 50° Northeast 538 619 32,700 1,500 Climbing Aus ATC (RADAR)
08:14AM -32.7520 153.2320 50° Northeast 535 616 32,300 1,200 Descending FlightAware
08:14AM -32.6980 153.3108 50° Northeast 532 612 33,500 1,020 Climbing Aus ATC (RADAR)
08:14AM -32.6940 153.3160 50° Northeast 534 615 33,000 240 Descending FlightAware
08:15AM -32.6270 153.4120 50° Northeast 532 612 33,700 960 Climbing FlightAware
08:16AM -32.5620 153.5040 50° Northeast 535 616 34,300 660 Climbing FlightAware
08:16AM -32.4990 153.5940 50° Northeast 537 618 34,600 420 Climbing FlightAware
08:17AM -32.4420 153.6750 50° Northeast 541 623 34,900 300 Climbing FlightAware
08:18AM -32.3730 153.7730 50° Northeast 551 634 35,000 720 Climbing FlightAware
08:18AM -32.3550 153.7993 50° Northeast 547 629 35,500 780 Climbing Aus ATC (RADAR)
08:18AM -32.3056 153.8688 50° Northeast 551 634 35,500 -840 Level Aus ATC (RADAR)
08:18AM -32.2980 153.8790 50° Northeast 550 633 35,000  Descending FlightAware
08:19AM -32.2316 153.9728 50° Northeast 553 636 35,500  Climbing Aus ATC (RADAR)
08:19AM -32.2300 153.9750 50° Northeast 553 636 35,000 -720 Descending FlightAware
08:20AM -32.1700 154.0590 50° Northeast 553 636 35,000  Level FlightAware
08:20AM -32.1110 154.1420 50° Northeast 553 636 35,000  Level FlightAware
08:21AM -32.0310 154.2520 49° Northeast 554 638 35,000  Level FlightAware
08:22AM -31.9630 154.3460 50° Northeast 552 635 35,000 360 Level FlightAware
08:22AM -31.8932 154.4434 50° Northeast 551 634 35,500  Climbing Aus ATC (RADAR)
08:22AM -31.8870 154.4520 50° Northeast 552 635 35,000 -600 Descending FlightAware
08:23AM -31.8090 154.5600 50° Northeast 551 634 35,000  Level FlightAware
08:24AM -31.7550 154.6340 50° Northeast 551 634 35,000 600 Level FlightAware
08:24AM -31.7285 154.6711 50° Northeast 548 631 35,500 840 Climbing Aus ATC (RADAR)
08:24AM -31.6789 154.7396 50° Northeast 549 632 35,500 -960 Level Aus ATC (RADAR)
08:25AM -31.6790 154.7390 50° Northeast 549 632 35,000  Descending FlightAware
08:25AM -31.6214 154.8182 50° Northeast 547 629 35,500  Climbing Aus ATC (RADAR)
08:25AM -31.5990 154.8490 50° Northeast 549 632 35,000 -600 Descending FlightAware
08:26AM -31.5360 154.9360 50° Northeast 548 631 35,000 360 Level FlightAware
08:27AM -31.4567 155.0440 50° Northeast 547 629 35,500  Climbing Aus ATC (RADAR)
08:27AM -31.4600 155.0380 50° Northeast 548 631 35,000 -720 Descending FlightAware
08:27AM -31.4080 155.1090 49° Northeast 548 631 35,000  Level FlightAware
08:28AM -31.3390 155.2020 49° Northeast 548 631 35,000  Level FlightAware
08:29AM -31.2880 155.2710 49° Northeast 548 631 35,000 360 Level FlightAware
08:30AM -31.1679 155.4303 49° Northeast 525 604 35,500  Climbing Aus ATC (RADAR)
08:30AM -31.2200 155.3620 49° Northeast 548 631 35,000 -840 Descending FlightAware
08:30AM -31.1690 155.4310 49° Northeast 548 631 35,000  Level FlightAware
08:31AM -31.1020 155.5200 49° Northeast 548 631 35,000  Level FlightAware
08:32AM -31.0540 155.5840 49° Northeast 548 631 35,000 600 Level FlightAware
08:32AM -30.9568 155.7193 49° Northeast 536 617 35,500 600 Climbing Aus ATC (RADAR)
08:32AM -30.9000 155.7957 49° Northeast 535 616 35,500 -780 Level Aus ATC (RADAR)
08:32AM -30.9810 155.6830 49° Northeast 548 631 35,000  Descending FlightAware
08:33AM -30.8431 155.8717 49° Northeast 535 616 35,500  Climbing Aus ATC (RADAR)
08:33AM -30.9330 155.7480 49° Northeast 548 631 35,000  Descending FlightAware
08:34AM -30.7786 155.9580 49° Northeast 531 611 35,500  Climbing Aus ATC (RADAR)
08:34AM -30.8630 155.8400 49° Northeast 548 631 35,000 -660 Descending FlightAware
08:34AM -30.8130 155.9090 49° Northeast 548 631 35,000 660 Level FlightAware
08:35AM -30.6902 156.0754 49° Northeast 527 606 35,500 600 Climbing Aus ATC (RADAR)
08:35AM -30.6320 156.1520 49° Northeast 35,000  Descending FlightAware
08:35AM -30.6255 156.1610 49° Northeast 528 608 35,500 420 Climbing Aus ATC (RADAR)
08:36AM -30.5272 156.2905 49° Northeast 532 612 35,500 -540 Level Aus ATC (RADAR)
08:36AM -30.5420 156.2700 49° Northeast 537 618 35,000  Descending FlightAware
08:37AM -30.4689 156.3674 49° Northeast 538 619 35,500  Climbing Aus ATC (RADAR)
08:37AM -30.4740 156.3570 49° Northeast 537 618 35,000 -660 Descending FlightAware
08:38AM -30.4230 156.4230 48° Northeast 537 618 35,000  Level FlightAware
08:38AM -30.3170 156.5650 49° Northeast 539 620 35,000 300 Level FlightAware
08:39AM -30.2360 156.6718 49° Northeast 538 619 35,500  Climbing Aus ATC (RADAR)
08:39AM -30.2310 156.6790 49° Northeast 539 620 35,000 -660 Descending FlightAware
08:40AM -30.1820 156.7440 49° Northeast 539 620 35,000  Level FlightAware
08:41AM -30.1140 156.8350 49° Northeast 539 620 35,000 300 Level FlightAware
08:41AM -30.0008 156.9767 49° Northeast 543 625 35,500  Climbing Aus ATC (RADAR)
08:42AM -30.0470 156.9230 49° Northeast 539 620 35,000 -720 Descending FlightAware
08:42AM -29.9970 156.9900 49° Northeast 539 620 35,000  Level FlightAware
08:43AM -29.8380 157.1880 47° Northeast 539 620 35,000 300 Level FlightAware
08:44AM -29.7658 157.2792 47° Northeast 538 619 35,500  Climbing Aus ATC (RADAR)
08:44AM -29.7870 157.2560 47° Northeast 539 620 35,000  Descending FlightAware
08:44AM -29.7068 157.3549 47° Northeast 541 623 35,500  Climbing Aus ATC (RADAR)
08:45AM -29.7230 157.3410 47° Northeast 539 620 35,000 -660 Descending FlightAware
08:45AM -29.6730 157.4070 49° Northeast 539 620 35,000  Level FlightAware
08:46AM -29.6070 157.4940 49° Northeast 539 620 35,000  Level FlightAware
08:47AM -29.5560 157.5620 49° Northeast 539 620 35,000 660 Level FlightAware
08:47AM -29.4709 157.6552 49° Northeast 540 621 35,500 660 Climbing Aus ATC (RADAR)
08:47AM -29.4120 157.7301 49° Northeast 539 620 35,500 -780 Level Aus ATC (RADAR)
08:47AM -29.4890 157.6500 49° Northeast 539 620 35,000 -720 Descending FlightAware
08:48AM -29.4390 157.7160 49° Northeast 539 620 35,000  Level FlightAware
08:49AM -29.3720 157.8040 49° Northeast 539 620 35,000  Level FlightAware
08:49AM -29.3220 157.8700 49° Northeast 539 620 35,000  Level FlightAware
08:50AM -29.2720 157.9360 49° Northeast 539 620 35,000 360 Level FlightAware
08:51AM -29.0644 158.1666 49° Northeast 544 626 35,500  Climbing Aus ATC (RADAR)
08:51AM -29.2040 158.0260 49° Northeast 539 620 35,000 -720 Descending FlightAware
08:51AM -29.1550 158.0900 49° Northeast 539 620 35,000  Level FlightAware
08:52AM -29.0900 158.1760 49° Northeast 539 620 35,000  Level FlightAware
08:55AM -28.8481 158.4194 41° Northeast  Level Estimated
08:56AM -28.7450 158.5226 41° Northeast  Level Estimated
08:56AM -28.4973 158.8721 47° Northeast 35,000  Level Aus ATC (Calculated)
08:58AM -28.3415 159.0248 41° Northeast  Level Estimated
08:59AM -28.2375 159.1264 41° Northeast  Level Estimated
08:59AM -28.2270 159.2039 47° Northeast 37,000  Level Aus ATC (Calculated)
09:01AM -28.0443 159.3804 40° Northeast  Level Estimated
09:01AM -27.9771 159.5083 47° Northeast 37,000  Level Aus ATC (Calculated)
09:03AM -27.8382 159.6407 40° Northeast  Level Estimated
09:04AM -27.7326 159.7410 40° Northeast  Level Estimated
09:04AM -27.7461 159.7877 47° Northeast 37,000  Level Aus ATC (Calculated)
09:05AM -27.6269 159.8411 40° Northeast  Level Estimated
09:06AM -27.5500 159.9720 40° Northeast  Level Estimated
09:07AM -27.4439 160.0714 40° Northeast  Level Estimated
09:07AM -27.4512 160.1418 47° Northeast 37,000  Level Aus ATC (Calculated)
09:09AM -27.2539 160.3240 39° Northeast  Level Estimated
09:10AM -27.1471 160.4223 39° Northeast  Level Estimated
09:10AM -27.1455 160.5058 46° Northeast 37,000  Level Aus ATC (Calculated)
09:10AM -27.0785 160.5851 46° Northeast 37,000  Level Aus ATC (Calculated)
09:12AM -26.9675 160.6855 39° Northeast  Level Estimated
09:12AM -26.8835 160.8152 46° Northeast 37,000  Level Aus ATC (Calculated)
09:13AM -26.8600 160.7825 39° Northeast  Level Estimated
09:14AM -26.7721 160.9148 39° Northeast  Level Estimated
09:15AM -26.6642 161.0110 39° Northeast  Level Estimated
09:15AM -26.7065 161.0230 46° Northeast 37,000  Level Aus ATC (Calculated)
09:16AM -26.5982 161.1187 38° Northeast  Level Estimated
09:17AM -26.4899 161.2142 38° Northeast  Level Estimated
09:17AM -26.4922 161.2733 46° Northeast 37,000  Level Aus ATC (Calculated)
09:17AM -26.4922 161.2733 46° Northeast 37,000  Level Aus ATC (Calculated)
09:18AM -26.3834 161.3681 38° Northeast  Level Estimated
09:19AM -26.2746 161.4627 38° Northeast  Level Estimated
09:20AM -26.1658 161.5571 38° Northeast  Level Estimated
09:21AM -26.0568 161.6513 38° Northeast  Level Estimated
09:22AM -25.9478 161.7454 38° Northeast  Level Estimated
09:23AM -25.8388 161.8393 38° Northeast  Level Estimated
09:24AM -25.7297 161.9330 38° Northeast  Level Estimated
09:25AM -25.6205 162.0266 38° Northeast  Level Estimated
09:26AM -25.5112 162.1199 38° Northeast  Level Estimated
09:27AM -25.4019 162.2132 38° Northeast  Level Estimated
09:27AM -25.5021 162.4113 46° Northeast 37,000  Level Aus ATC (Calculated)
09:28AM -25.3909 162.5017 36° Northeast  Level Estimated
09:29AM -25.2796 162.5919 36° Northeast  Level Estimated
09:30AM -25.1682 162.6819 36° Northeast  Level Estimated
09:31AM -25.0569 162.7718 36° Northeast  Level Estimated
09:32AM -24.9454 162.8615 36° Northeast  Level Estimated
09:33AM -24.8339 162.9510 36° Northeast  Level Estimated
09:34AM -24.7224 163.0404 36° Northeast  Level Estimated
09:35AM -24.6108 163.1296 36° Northeast  Level Estimated
09:36AM -24.4991 163.2187 36° Northeast  Level Estimated
09:37AM -24.3874 163.3076 36° Northeast  Level Estimated
09:38AM -24.2757 163.3963 36° Northeast  Level Estimated
09:39AM -24.1638 163.4849 36° Northeast  Level Estimated
09:40AM -24.0520 163.5733 36° Northeast  Level Estimated
09:41AM -23.9401 163.6616 36° Northeast  Level Estimated
09:42AM -23.8281 163.7497 36° Northeast  Level Estimated
09:43AM -23.7161 163.8377 36° Northeast  Level Estimated
09:44AM -23.6040 163.9255 36° Northeast  Level Estimated
09:45AM -23.4919 164.0132 36° Northeast  Level Estimated
09:46AM -23.3798 164.1007 36° Northeast  Level Estimated
09:47AM -23.2676 164.1881 36° Northeast  Level Estimated
09:47AM -23.5370 164.5840 36° Northeast 485 558 37,000  Level FlightAware
09:48AM -23.1553 164.2753 36° Northeast  Level Estimated
09:48AM -23.4360 164.6940 45° Northeast 484 557 37,000  Level FlightAware
09:48AM -23.3640 164.7720 45° Northeast 485 558 37,000  Level FlightAware
09:49AM -23.2780 164.8640 45° Northeast 484 557 37,000  Level FlightAware
09:50AM -23.2170 164.9290 44° Northeast 485 558 37,000  Level FlightAware
09:51AM -23.1430 165.0090 45° Northeast 486 559 37,000  Level FlightAware
09:51AM -23.0750 165.0810 44° Northeast 487 560 37,000  Level FlightAware
09:52AM -23.0040 165.1580 45° Northeast 489 563 37,000  Level FlightAware
09:53AM -22.9390 165.2260 44° Northeast 490 564 37,000  Level FlightAware
09:53AM -22.8820 165.2870 45° Northeast 491 565 37,000  Level FlightAware
09:54AM -22.8190 165.3540 44° Northeast 492 566 37,000  Level FlightAware
09:55AM -22.7480 165.4290 44° Northeast 492 566 37,000  Level FlightAware
09:55AM -22.6890 165.4930 45° Northeast 490 564 37,000  Level FlightAware
09:56AM -22.6220 165.5630 44° Northeast 487 560 37,000  Level FlightAware
09:57AM -22.5510 165.6380 44° Northeast 486 559 37,000  Level FlightAware
09:57AM -22.4860 165.7070 44° Northeast 485 558 37,000  Level FlightAware
09:58AM -22.4180 165.7790 44° Northeast 485 558 37,000  Level FlightAware
09:59AM -22.3510 165.8490 44° Northeast 486 559 37,000  Level FlightAware
09:59AM -22.2840 165.9200 44° Northeast 486 559 37,000  Level FlightAware
10:00AM -22.2230 165.9840 44° Northeast 485 558 37,000  Level FlightAware
10:01AM -22.1610 166.0490 44° Northeast 485 558 37,000  Level FlightAware
10:01AM -22.0970 166.1160 44° Northeast 485 558 37,000  Level FlightAware
10:02AM -22.0330 166.1820 44° Northeast 483 556 37,000  Level FlightAware
10:03AM -21.9530 166.2370 33° Northeast 478 550 37,000  Level FlightAware
10:03AM -21.8720 166.2760 24° Northeast 479 551 37,000  Level FlightAware
10:04AM -21.7830 166.3190 24° Northeast 480 552 37,000  Level FlightAware
10:05AM -21.6990 166.3590 24° Northeast 481 554 37,000  Level FlightAware
10:05AM -21.6250 166.3940 24° Northeast 480 552 37,000  Level FlightAware
10:06AM -21.5260 166.4410 24° Northeast 480 552 37,000  Level FlightAware
10:07AM -21.4450 166.4790 24° Northeast 480 552 37,000  Level FlightAware
10:08AM -21.3600 166.5200 24° Northeast 480 552 37,000  Level FlightAware
10:08AM -21.2780 166.5590 24° Northeast 479 551 37,000  Level FlightAware
10:09AM -21.1940 166.5990 24° Northeast 479 551 37,000  Level FlightAware
10:10AM -21.1030 166.6420 24° Northeast 478 550 37,000  Level FlightAware
10:10AM -21.0150 166.6840 24° Northeast 478 550 37,000  Level FlightAware
10:11AM -20.9320 166.7230 24° Northeast 477 549 37,000  Level FlightAware
10:12AM -20.8520 166.7610 24° Northeast 477 549 37,000  Level FlightAware
10:12AM -20.7680 166.8010 24° Northeast 475 547 37,000  Level FlightAware
10:13AM -20.6760 166.8440 24° Northeast 474 545 37,000  Level FlightAware
10:14AM -20.6020 166.8790 24° Northeast 473 544 37,000  Level FlightAware
10:14AM -20.5270 166.9140 24° Northeast 473 544 37,000  Level FlightAware
10:15AM -20.4350 166.9570 24° Northeast 472 543 37,000  Level FlightAware
10:16AM -20.3400 167.0010 23° Northeast 471 542 37,000  Level FlightAware
10:17AM -20.2580 167.0380 23° Northeast 471 542 37,000  Level FlightAware
10:18AM -20.1950 167.0670 23° Northeast 471 542 37,000  Level FlightAware
10:18AM -20.1110 167.1040 22° Northeast 471 542 37,000  Level FlightAware
10:19AM -20.0480 167.1330 23° Northeast 471 542 37,000  Level FlightAware
10:20AM -19.9660 167.1700 23° Northeast 471 542 37,000  Level FlightAware
10:20AM -19.9080 167.1960 23° Northeast 471 542 37,000  Level FlightAware
10:21AM -19.8400 167.2270 23° Northeast 471 542 37,000  Level FlightAware
10:22AM -19.7770 167.2550 23° Northeast 471 542 37,000  Level FlightAware
10:22AM -19.6930 167.2930 23° Northeast 471 542 37,000  Level FlightAware
10:24AM -19.5860 167.3410 23° Northeast 471 542 37,000  Level FlightAware
10:24AM -19.5250 167.3690 23° Northeast 471 542 37,000  Level FlightAware
10:25AM -19.4460 167.4040 23° Northeast 471 542 37,000  Level FlightAware
10:28AM -19.1175 167.5624 24° Northeast  Level FlightAware Approximate
10:29AM -18.9919 167.6227 24° Northeast  Level FlightAware Approximate
10:30AM -18.8663 167.6830 24° Northeast  Level FlightAware Approximate
10:31AM -18.7406 167.7432 24° Northeast  Level FlightAware Approximate
10:32AM -18.6150 167.8033 24° Northeast  Level FlightAware Approximate
10:33AM -18.4889 167.8627 24° Northeast  Level FlightAware Approximate
10:34AM -18.3626 167.9212 24° Northeast  Level FlightAware Approximate
10:35AM -18.2363 167.9796 24° Northeast  Level FlightAware Approximate
10:36AM -18.1100 168.0379 24° Northeast  Level FlightAware Approximate
10:37AM -17.9837 168.0961 24° Northeast  Level FlightAware Approximate
10:38AM -17.8573 168.1543 24° Northeast  Level FlightAware Approximate
10:39AM -17.7309 168.2123 24° Northeast  Level FlightAware Approximate
10:40AM -17.6907 168.3026 117° Southeast  Level FlightAware Approximate
10:41AM -17.6991 168.3198 117° Southeast  Level FlightAware Approximate
10:42AM -17.6993 168.3198 117° Southeast  Level Estimated
10:43AM -17.6991 168.3198 117° Southeast  Level FlightAware Approximate
10:44AM -17.6993 168.3198 117° Southeast  Level Estimated
10:45AM -17.6991 168.3198 117° Southeast  Level FlightAware Approximate
10:46AM -17.6993 168.3198 117° Southeast  Level Estimated
10:47AM -17.6991 168.3198 117° Southeast  Level FlightAware Approximate
10:48AM -17.6993 168.3198 117° Southeast  Level Estimated
10:49AM -17.6991 168.3198 117° Southeast  Level FlightAware Approximate
10:50AM -17.6993 168.3198 117° Southeast  Level Estimated
10:51AM -17.6991 168.3198 117° Southeast  Level FlightAware Approximate
10:52AM -17.6993 168.3198 117° Southeast  Level Estimated
10:53AM -17.6991 168.3198 117° Southeast  Level FlightAware Approximate
10:54AM -17.6993 168.3198 117° Southeast  Level Estimated
10:55AM -17.6991 168.3198 117° Southeast  Level FlightAware Approximate
10:56AM -17.6993 168.3198 117° Southeast  Level Estimated
10:57AM -17.6991 168.3198 117° Southeast  Level FlightAware Approximate
10:58AM -17.6993 168.3198 117° Southeast  Level Estimated
10:59AM -17.6991 168.3198 117° Southeast  Level FlightAware Approximate
11:00AM -17.6993 168.3198 117° Southeast  Level Estimated